Time;durP1;ratioP1;P1;durP2;ratioP2;P2;SDS_P1;SDS_P2;PMS_P1;PMS_P2;Temp;Humidity;BMP_temperature;BMP_pressure;BME280_temperature;BME280_humidity;BME280_pressure;Samples;Min_cycle;Max_cycle;Signal;HPM_P1;HPM_P2
2021/05/20 00:00:00;;;;;;;;;;;20.60;54.60;;;;;;5049360;28;19929;-68
2021/05/20 00:02:26;;;;;;;;;;;20.60;54.60;;;;;;5034768;28;19928;-66
2021/05/20 00:04:52;;;;;;;;;;;20.60;54.70;;;;;;5014241;28;19967;-66
2021/05/20 00:07:18;;;;;;;;;;;20.60;55.10;;;;;;5033498;28;19959;-67
2021/05/20 00:09:44;;;;;;;;;;;20.60;55.00;;;;;;5025522;28;19940;-68
2021/05/20 00:12:12;;;;;;;;;;;20.70;55.50;;;;;;5045349;28;19932;-66
2021/05/20 00:14:38;;;;;;;;;;;20.60;55.10;;;;;;5043021;28;20418;-67
2021/05/20 00:17:04;;;;;;;;;;;20.70;55.10;;;;;;5048010;28;19932;-68
2021/05/20 00:19:30;;;;;;;;;;;20.70;54.70;;;;;;5038416;28;20378;-66
2021/05/20 00:21:56;;;;;;;;;;;20.60;54.50;;;;;;5038690;28;19933;-68
2021/05/20 00:24:23;;;;;;;;;;;20.60;54.30;;;;;;5051163;28;19928;-67
2021/05/20 00:26:49;;;;;;;;;;;20.60;54.40;;;;;;5049381;28;19928;-67
2021/05/20 00:29:15;;;;;;;;;;;20.60;54.70;;;;;;5047946;28;19997;-67
2021/05/20 00:31:41;;;;;;;;;;;20.60;55.00;;;;;;5050491;28;19932;-68
2021/05/20 00:34:07;;;;;;;;;;;20.60;54.90;;;;;;5050827;28;19936;-67
2021/05/20 00:36:33;;;;;;;;;;;20.60;54.60;;;;;;5037228;28;19925;-68
2021/05/20 00:38:59;;;;;;;;;;;20.60;54.40;;;;;;5047070;28;19932;-72
2021/05/20 00:41:26;;;;;;;;;;;20.70;54.60;;;;;;5050370;28;19929;-69
2021/05/20 00:43:52;;;;;;;;;;;20.70;54.70;;;;;;5029356;28;19979;-67
2021/05/20 00:46:18;;;;;;;;;;;20.70;54.70;;;;;;5050506;28;19929;-67
2021/05/20 00:48:44;;;;;;;;;;;20.60;54.50;;;;;;5033642;28;20600;-68
2021/05/20 00:51:10;;;;;;;;;;;20.60;54.50;;;;;;5033592;28;19936;-67
2021/05/20 00:53:36;;;;;;;;;;;20.60;54.30;;;;;;5021249;28;19929;-68
2021/05/20 00:56:02;;;;;;;;;;;20.60;54.30;;;;;;5040514;28;19928;-68
2021/05/20 00:58:29;;;;;;;;;;;20.60;54.70;;;;;;5031167;28;20537;-67
2021/05/20 01:00:55;;;;;;;;;;;20.60;54.90;;;;;;4994763;28;20313;-67
2021/05/20 01:03:21;;;;;;;;;;;20.60;54.50;;;;;;5011677;28;19932;-68
2021/05/20 01:05:47;;;;;;;;;;;20.60;54.30;;;;;;5014679;28;19929;-68
2021/05/20 01:08:13;;;;;;;;;;;20.60;54.30;;;;;;5037778;28;19935;-68
2021/05/20 01:10:39;;;;;;;;;;;20.60;54.20;;;;;;5046189;28;19944;-68
2021/05/20 01:13:05;;;;;;;;;;;20.60;54.30;;;;;;5049510;28;20436;-67
2021/05/20 01:15:32;;;;;;;;;;;20.60;54.30;;;;;;5037068;28;19928;-67
2021/05/20 01:17:59;;;;;;;;;;;20.60;54.30;;;;;;5045499;28;19952;-66
2021/05/20 01:20:25;;;;;;;;;;;20.60;54.20;;;;;;5050022;28;19928;-68
2021/05/20 01:22:51;;;;;;;;;;;20.60;54.10;;;;;;5033855;28;19937;-69
2021/05/20 01:25:17;;;;;;;;;;;20.60;54.10;;;;;;5049494;28;20955;-67
2021/05/20 01:27:44;;;;;;;;;;;20.60;54.10;;;;;;5050165;28;20311;-67
2021/05/20 01:30:10;;;;;;;;;;;20.50;54.10;;;;;;5049726;28;20716;-69
2021/05/20 01:32:36;;;;;;;;;;;20.50;54.00;;;;;;5048326;28;19951;-68
2021/05/20 01:35:02;;;;;;;;;;;20.60;54.60;;;;;;5030985;28;20428;-67
2021/05/20 01:37:29;;;;;;;;;;;20.50;54.40;;;;;;5036590;28;19928;-67
2021/05/20 01:39:55;;;;;;;;;;;20.50;54.40;;;;;;5050105;28;19987;-69
2021/05/20 01:42:21;;;;;;;;;;;20.50;55.00;;;;;;5031446;28;20316;-68
2021/05/20 01:44:47;;;;;;;;;;;20.50;54.10;;;;;;5011417;28;19925;-68
2021/05/20 01:47:13;;;;;;;;;;;20.50;54.20;;;;;;5048347;28;19925;-69
2021/05/20 01:49:39;;;;;;;;;;;20.60;54.30;;;;;;5037462;28;20412;-69
2021/05/20 01:52:05;;;;;;;;;;;20.50;54.10;;;;;;5037496;28;21255;-67
2021/05/20 01:54:32;;;;;;;;;;;20.50;54.00;;;;;;5022716;28;19949;-67
2021/05/20 01:56:58;;;;;;;;;;;20.50;53.90;;;;;;5044619;28;20351;-70
2021/05/20 01:59:25;;;;;;;;;;;20.50;53.90;;;;;;5040593;28;19970;-67
2021/05/20 02:01:51;;;;;;;;;;;20.50;53.80;;;;;;5029378;28;19928;-68
2021/05/20 02:04:17;;;;;;;;;;;20.50;53.80;;;;;;5040632;28;19972;-69
2021/05/20 02:06:43;;;;;;;;;;;20.50;53.90;;;;;;5039734;28;19952;-68
2021/05/20 02:09:09;;;;;;;;;;;20.50;53.90;;;;;;5039113;28;20404;-69
2021/05/20 02:11:36;;;;;;;;;;;20.50;53.90;;;;;;5035444;28;20391;-69
2021/05/20 02:14:02;;;;;;;;;;;20.50;53.90;;;;;;5045156;28;19983;-67
2021/05/20 02:16:28;;;;;;;;;;;20.50;54.00;;;;;;5038700;28;19924;-69
2021/05/20 02:18:54;;;;;;;;;;;20.50;53.80;;;;;;5048382;28;19932;-68
2021/05/20 02:21:20;;;;;;;;;;;20.50;53.80;;;;;;5033637;28;19937;-69
2021/05/20 02:23:46;;;;;;;;;;;20.50;53.90;;;;;;5047412;28;20408;-70
2021/05/20 02:26:12;;;;;;;;;;;20.50;54.00;;;;;;5028247;28;19933;-68
2021/05/20 02:28:39;;;;;;;;;;;20.50;54.20;;;;;;5049578;28;20659;-66
2021/05/20 02:31:05;;;;;;;;;;;20.50;54.00;;;;;;5044525;28;19928;-68
2021/05/20 02:33:31;;;;;;;;;;;20.50;53.80;;;;;;5046211;28;21367;-66
2021/05/20 02:35:57;;;;;;;;;;;20.50;53.80;;;;;;5039825;28;19933;-68
2021/05/20 02:38:23;;;;;;;;;;;20.50;53.60;;;;;;5036265;28;19933;-68
2021/05/20 02:40:49;;;;;;;;;;;20.50;53.60;;;;;;5049571;28;19932;-67
2021/05/20 02:43:15;;;;;;;;;;;20.60;53.70;;;;;;5026875;28;19932;-69
2021/05/20 02:45:42;;;;;;;;;;;20.50;53.70;;;;;;5039964;28;19982;-66
2021/05/20 02:48:08;;;;;;;;;;;20.50;53.70;;;;;;5018494;28;19934;-68
2021/05/20 02:50:34;;;;;;;;;;;20.50;53.70;;;;;;5014778;28;19928;-69
2021/05/20 02:53:00;;;;;;;;;;;20.50;53.70;;;;;;4992071;28;19953;-68
2021/05/20 02:55:27;;;;;;;;;;;20.50;53.90;;;;;;4999329;28;19933;-69
2021/05/20 02:57:53;;;;;;;;;;;20.50;53.90;;;;;;5042069;28;19998;-67
2021/05/20 03:00:20;;;;;;;;;;;20.50;53.80;;;;;;5033625;28;19939;-67
2021/05/20 03:02:47;;;;;;;;;;;20.50;53.90;;;;;;5041338;28;19928;-66
2021/05/20 03:05:13;;;;;;;;;;;20.50;53.80;;;;;;5038451;28;19925;-69
2021/05/20 03:07:39;;;;;;;;;;;20.50;53.60;;;;;;5019366;28;19936;-69
2021/05/20 03:10:06;;;;;;;;;;;20.50;53.70;;;;;;5036362;28;19928;-68
2021/05/20 03:12:32;;;;;;;;;;;20.50;53.80;;;;;;5030457;28;19951;-68
2021/05/20 03:14:58;;;;;;;;;;;20.50;53.70;;;;;;5022113;28;19929;-67
2021/05/20 03:17:24;;;;;;;;;;;20.50;53.50;;;;;;5048957;28;19933;-68
2021/05/20 03:19:51;;;;;;;;;;;20.60;53.50;;;;;;5050163;28;19935;-66
2021/05/20 03:22:17;;;;;;;;;;;20.50;53.60;;;;;;5046508;28;19995;-66
2021/05/20 03:24:43;;;;;;;;;;;20.50;53.60;;;;;;5030671;28;20530;-66
2021/05/20 03:27:09;;;;;;;;;;;20.60;53.60;;;;;;5047686;28;19979;-68
2021/05/20 03:29:35;;;;;;;;;;;20.60;53.50;;;;;;5021733;28;19933;-68
2021/05/20 03:32:01;;;;;;;;;;;20.60;53.50;;;;;;5048253;28;19929;-68
2021/05/20 03:34:27;;;;;;;;;;;20.60;53.40;;;;;;5046248;28;19959;-67
2021/05/20 03:36:54;;;;;;;;;;;20.60;53.20;;;;;;5018997;28;20004;-69
2021/05/20 03:39:20;;;;;;;;;;;20.60;53.30;;;;;;5039542;28;20312;-67
2021/05/20 03:41:46;;;;;;;;;;;20.70;53.30;;;;;;5049118;28;19929;-68
2021/05/20 03:44:12;;;;;;;;;;;20.70;53.30;;;;;;5031729;28;19928;-68
2021/05/20 03:46:38;;;;;;;;;;;20.60;53.20;;;;;;5047596;28;19928;-67
2021/05/20 03:49:04;;;;;;;;;;;20.70;53.20;;;;;;5048598;28;19929;-70
2021/05/20 03:51:30;;;;;;;;;;;20.70;53.20;;;;;;5043358;28;20487;-70
2021/05/20 03:53:57;;;;;;;;;;;20.70;53.20;;;;;;5037579;28;20362;-69
2021/05/20 03:56:23;;;;;;;;;;;20.70;53.20;;;;;;4968041;28;19952;-68
2021/05/20 03:58:49;;;;;;;;;;;20.70;53.30;;;;;;5038215;28;19940;-68
2021/05/20 04:01:15;;;;;;;;;;;20.70;53.20;;;;;;5042116;28;19928;-67
2021/05/20 04:03:41;;;;;;;;;;;20.60;53.20;;;;;;5030081;28;19935;-68
2021/05/20 04:06:07;;;;;;;;;;;20.60;53.20;;;;;;5045534;28;19924;-69
2021/05/20 04:08:34;;;;;;;;;;;20.60;53.10;;;;;;5043545;28;19925;-69
2021/05/20 04:11:01;;;;;;;;;;;20.60;53.20;;;;;;5046979;28;20281;-68
2021/05/20 04:13:27;;;;;;;;;;;20.60;53.20;;;;;;5048357;28;19937;-68
2021/05/20 04:15:53;;;;;;;;;;;20.60;53.20;;;;;;5043692;28;19974;-70
2021/05/20 04:18:19;;;;;;;;;;;20.60;53.10;;;;;;5047482;28;20024;-68
2021/05/20 04:20:45;;;;;;;;;;;20.70;53.20;;;;;;5043211;28;19929;-67
2021/05/20 04:23:11;;;;;;;;;;;20.70;53.00;;;;;;5046180;28;19928;-68
2021/05/20 04:25:37;;;;;;;;;;;20.70;53.00;;;;;;5044779;28;19928;-67
2021/05/20 04:28:04;;;;;;;;;;;20.80;53.10;;;;;;5004095;28;20308;-67
2021/05/20 04:30:30;;;;;;;;;;;20.70;52.90;;;;;;5042893;28;19928;-69
2021/05/20 04:32:56;;;;;;;;;;;20.70;52.90;;;;;;5045035;28;19933;-67
2021/05/20 04:35:22;;;;;;;;;;;20.70;52.90;;;;;;5031973;28;19932;-68
2021/05/20 04:37:48;;;;;;;;;;;20.80;53.00;;;;;;5039426;28;20315;-67
2021/05/20 04:40:14;;;;;;;;;;;20.70;52.80;;;;;;5035076;28;19929;-67
2021/05/20 04:42:40;;;;;;;;;;;20.80;52.70;;;;;;5050301;28;19932;-67
2021/05/20 04:45:08;;;;;;;;;;;20.80;52.70;;;;;;5017956;28;21134;-68
2021/05/20 04:47:34;;;;;;;;;;;20.80;52.70;;;;;;5048023;28;20793;-68
2021/05/20 04:50:00;;;;;;;;;;;20.80;52.70;;;;;;5048816;28;19936;-68
2021/05/20 04:52:26;;;;;;;;;;;20.80;52.80;;;;;;5047121;28;19999;-68
2021/05/20 04:54:52;;;;;;;;;;;20.80;52.80;;;;;;5044472;28;19977;-69
2021/05/20 04:57:18;;;;;;;;;;;20.70;52.80;;;;;;5050053;28;20546;-69
2021/05/20 04:59:44;;;;;;;;;;;20.70;52.90;;;;;;5039745;28;19932;-70
2021/05/20 05:02:11;;;;;;;;;;;20.60;52.90;;;;;;5047926;28;19928;-66
2021/05/20 05:04:37;;;;;;;;;;;20.60;52.90;;;;;;5019601;28;19964;-68
2021/05/20 05:07:03;;;;;;;;;;;20.60;52.60;;;;;;5033038;28;20354;-69
2021/05/20 05:09:29;;;;;;;;;;;20.60;53.10;;;;;;5049010;28;19936;-68
2021/05/20 05:11:55;;;;;;;;;;;20.70;52.70;;;;;;5049859;28;20012;-67
2021/05/20 05:14:21;;;;;;;;;;;20.70;52.60;;;;;;5021761;28;20910;-67
2021/05/20 05:16:47;;;;;;;;;;;20.70;52.50;;;;;;5049128;28;19986;-67
2021/05/20 05:19:14;;;;;;;;;;;20.70;52.60;;;;;;5052184;28;19932;-68
2021/05/20 05:21:40;;;;;;;;;;;20.70;52.70;;;;;;5032351;28;19987;-69
2021/05/20 05:24:06;;;;;;;;;;;20.70;52.60;;;;;;5047751;28;19929;-69
2021/05/20 05:26:32;;;;;;;;;;;20.70;52.50;;;;;;5047654;28;19928;-69
2021/05/20 05:28:58;;;;;;;;;;;20.70;52.40;;;;;;5037753;28;19979;-69
2021/05/20 05:31:26;;;;;;;;;;;20.70;52.50;;;;;;5026310;28;19936;-67
2021/05/20 05:33:52;;;;;;;;;;;20.70;52.50;;;;;;5022612;28;19929;-67
2021/05/20 05:36:19;;;;;;;;;;;20.60;52.30;;;;;;5023384;28;20000;-67
2021/05/20 05:38:45;;;;;;;;;;;20.60;52.50;;;;;;4998822;28;19929;-68
2021/05/20 05:41:11;;;;;;;;;;;20.60;52.40;;;;;;5025544;28;19929;-67
2021/05/20 05:43:37;;;;;;;;;;;20.60;52.50;;;;;;5047887;28;19955;-69
2021/05/20 05:46:03;;;;;;;;;;;20.50;52.40;;;;;;5019634;28;19961;-69
2021/05/20 05:48:29;;;;;;;;;;;20.60;52.30;;;;;;5042876;28;19932;-68
2021/05/20 05:50:57;;;;;;;;;;;20.50;52.20;;;;;;5033547;28;20024;-69
2021/05/20 05:53:24;;;;;;;;;;;20.50;52.30;;;;;;5040149;28;19928;-69
2021/05/20 05:55:50;;;;;;;;;;;20.50;52.20;;;;;;5037708;28;19979;-68
2021/05/20 05:58:16;;;;;;;;;;;20.50;52.10;;;;;;5014342;28;20012;-67
2021/05/20 06:00:42;;;;;;;;;;;20.50;52.70;;;;;;5030576;28;19929;-69
2021/05/20 06:03:08;;;;;;;;;;;20.60;51.90;;;;;;5015890;28;19933;-67
2021/05/20 06:05:34;;;;;;;;;;;20.60;52.00;;;;;;4997138;28;20376;-67
2021/05/20 06:08:00;;;;;;;;;;;20.60;52.10;;;;;;5010478;28;20443;-66
2021/05/20 06:10:27;;;;;;;;;;;20.60;52.20;;;;;;5047330;28;19929;-68
2021/05/20 06:12:53;;;;;;;;;;;20.60;52.20;;;;;;5005997;28;20055;-68
2021/05/20 06:15:19;;;;;;;;;;;20.60;52.30;;;;;;5011408;28;19933;-68
2021/05/20 06:17:45;;;;;;;;;;;20.60;52.40;;;;;;5033387;28;20389;-68
2021/05/20 06:20:11;;;;;;;;;;;20.60;52.40;;;;;;5020401;28;20432;-69
2021/05/20 06:22:37;;;;;;;;;;;20.60;52.50;;;;;;5026018;28;19986;-69
2021/05/20 06:25:03;;;;;;;;;;;20.60;52.50;;;;;;5027251;28;19932;-68
2021/05/20 06:27:30;;;;;;;;;;;20.60;52.50;;;;;;5040589;28;20906;-68
2021/05/20 06:29:56;;;;;;;;;;;20.60;52.50;;;;;;5032559;28;19937;-67
2021/05/20 06:32:22;;;;;;;;;;;20.60;52.60;;;;;;5035658;28;19937;-66
2021/05/20 06:34:48;;;;;;;;;;;20.60;52.50;;;;;;5033790;28;20423;-68
2021/05/20 06:37:14;;;;;;;;;;;20.50;52.60;;;;;;5029435;28;19929;-67
2021/05/20 06:39:40;;;;;;;;;;;20.60;52.80;;;;;;5046009;28;19935;-67
2021/05/20 06:42:07;;;;;;;;;;;20.50;52.60;;;;;;5037118;28;19928;-69
2021/05/20 06:44:34;;;;;;;;;;;20.50;52.70;;;;;;5028015;28;19984;-70
2021/05/20 06:47:00;;;;;;;;;;;20.60;52.70;;;;;;5016660;28;19928;-68
2021/05/20 06:49:26;;;;;;;;;;;20.60;52.90;;;;;;5022665;28;21124;-68
2021/05/20 06:51:52;;;;;;;;;;;20.60;52.80;;;;;;5042515;28;19990;-69
2021/05/20 06:54:18;;;;;;;;;;;20.60;52.80;;;;;;5044304;28;19928;-68
2021/05/20 06:56:48;;;;;;;;;;;20.60;52.90;;;;;;5041104;28;19932;-68
2021/05/20 07:01:58;;;;;;;;;;;20.50;52.80;;;;;;5036690;28;20050;-68
2021/05/20 07:04:24;;;;;;;;;;;20.50;52.90;;;;;;5038711;28;19936;-69
2021/05/20 07:06:50;;;;;;;;;;;20.50;52.90;;;;;;5045340;28;19935;-67
2021/05/20 07:09:16;;;;;;;;;;;20.50;52.90;;;;;;5006823;28;20001;-66
2021/05/20 07:11:43;;;;;;;;;;;20.50;52.90;;;;;;5013114;28;19929;-67
2021/05/20 07:14:09;;;;;;;;;;;20.50;53.00;;;;;;5009778;28;21499;-67
2021/05/20 07:16:35;;;;;;;;;;;20.50;53.00;;;;;;5013292;28;20652;-68
2021/05/20 07:19:02;;;;;;;;;;;20.50;53.00;;;;;;5022481;28;20382;-67
2021/05/20 07:21:28;;;;;;;;;;;20.50;52.90;;;;;;5019763;28;20008;-68
2021/05/20 07:23:55;;;;;;;;;;;20.50;52.90;;;;;;5033233;28;19929;-68
2021/05/20 07:26:21;;;;;;;;;;;20.50;52.90;;;;;;5022015;28;19929;-69
2021/05/20 07:28:47;;;;;;;;;;;20.50;52.90;;;;;;5027756;28;20031;-72
2021/05/20 07:31:13;;;;;;;;;;;20.50;52.80;;;;;;5017513;28;19929;-68
2021/05/20 07:33:39;;;;;;;;;;;20.50;52.80;;;;;;5039836;28;19929;-68
2021/05/20 07:36:06;;;;;;;;;;;20.50;52.90;;;;;;5032292;28;21233;-66
2021/05/20 07:38:33;;;;;;;;;;;20.50;52.90;;;;;;5032082;28;20024;-67
2021/05/20 07:40:59;;;;;;;;;;;20.50;53.00;;;;;;5024608;28;19932;-72
2021/05/20 07:43:25;;;;;;;;;;;20.50;52.90;;;;;;5025221;28;19928;-67
2021/05/20 07:45:51;;;;;;;;;;;20.50;52.90;;;;;;4985778;28;19987;-67
2021/05/20 07:48:17;;;;;;;;;;;20.50;53.00;;;;;;5033499;28;20725;-68
2021/05/20 07:50:43;;;;;;;;;;;20.50;52.80;;;;;;5039024;28;19944;-67
2021/05/20 07:53:10;;;;;;;;;;;20.40;52.60;;;;;;5038003;28;19955;-68
2021/05/20 07:55:36;;;;;;;;;;;20.40;52.60;;;;;;5042690;28;19928;-68
2021/05/20 07:58:04;;;;;;;;;;;20.40;52.70;;;;;;5043167;28;19935;-69
2021/05/20 08:00:30;;;;;;;;;;;20.40;52.60;;;;;;5045197;28;19964;-67
2021/05/20 08:03:02;;;;;;;;;;;20.40;52.60;;;;;;5028945;28;19929;-67
2021/05/20 08:05:32;;;;;;;;;;;20.40;52.70;;;;;;5033214;28;19928;-68
2021/05/20 08:08:00;;;;;;;;;;;20.40;52.50;;;;;;4982029;28;19933;-67
2021/05/20 08:13:11;;;;;;;;;;;20.40;52.80;;;;;;5034417;28;19932;-68
2021/05/20 08:15:37;;;;;;;;;;;20.40;52.60;;;;;;5021413;28;19944;-69
2021/05/20 08:18:03;;;;;;;;;;;20.40;52.70;;;;;;5043344;28;19925;-68
2021/05/20 08:20:30;;;;;;;;;;;20.40;52.60;;;;;;5032040;28;19947;-69
2021/05/20 08:22:56;;;;;;;;;;;20.40;52.70;;;;;;5022886;28;19975;-69
2021/05/20 08:25:22;;;;;;;;;;;20.40;52.70;;;;;;5031935;28;20661;-69
2021/05/20 08:27:48;;;;;;;;;;;20.40;52.80;;;;;;4999821;28;19932;-68
2021/05/20 08:30:15;;;;;;;;;;;20.40;52.90;;;;;;5030224;28;19925;-69
2021/05/20 08:32:41;;;;;;;;;;;20.40;52.80;;;;;;5031293;28;20003;-68
2021/05/20 08:35:08;;;;;;;;;;;20.40;52.60;;;;;;5014014;28;19944;-69
2021/05/20 08:37:35;;;;;;;;;;;20.50;52.50;;;;;;5027457;28;19931;-68
2021/05/20 08:40:01;;;;;;;;;;;20.50;52.40;;;;;;5049333;28;19931;-67
2021/05/20 08:42:27;;;;;;;;;;;20.50;52.30;;;;;;5043088;28;19928;-67
2021/05/20 08:44:54;;;;;;;;;;;20.60;52.30;;;;;;5038352;28;19928;-69
2021/05/20 08:47:20;;;;;;;;;;;20.60;52.10;;;;;;5002671;28;19936;-69
2021/05/20 08:49:47;;;;;;;;;;;20.70;52.00;;;;;;5034985;28;19932;-65
2021/05/20 08:52:13;;;;;;;;;;;20.70;51.90;;;;;;5030503;28;19925;-69
2021/05/20 08:54:40;;;;;;;;;;;20.80;51.80;;;;;;5018258;28;20374;-72
2021/05/20 08:57:06;;;;;;;;;;;20.80;51.70;;;;;;5002638;28;19932;-69
2021/05/20 08:59:32;;;;;;;;;;;20.80;51.60;;;;;;5005260;28;19925;-67
2021/05/20 09:01:59;;;;;;;;;;;20.80;51.30;;;;;;5002844;28;19925;-68
2021/05/20 09:04:25;;;;;;;;;;;20.80;51.50;;;;;;5022483;28;19932;-67
2021/05/20 09:06:53;;;;;;;;;;;20.80;51.50;;;;;;4997115;28;19929;-71
2021/05/20 09:09:21;;;;;;;;;;;20.80;51.60;;;;;;5016744;28;19972;-68
2021/05/20 09:11:47;;;;;;;;;;;20.80;51.70;;;;;;5025499;28;19924;-68
2021/05/20 09:14:13;;;;;;;;;;;20.80;51.80;;;;;;5045729;28;20402;-68
2021/05/20 09:16:39;;;;;;;;;;;20.80;51.90;;;;;;5025404;28;19924;-68
2021/05/20 09:19:06;;;;;;;;;;;20.80;51.80;;;;;;5032810;28;19937;-68
2021/05/20 09:21:32;;;;;;;;;;;20.80;51.90;;;;;;5037277;28;19972;-69
2021/05/20 09:23:59;;;;;;;;;;;20.80;52.00;;;;;;5026226;28;20059;-68
2021/05/20 09:26:34;;;;;;;;;;;20.80;52.00;;;;;;5045656;28;20011;-68
2021/05/20 09:29:07;;;;;;;;;;;20.80;52.20;;;;;;5019357;28;19921;-69
2021/05/20 09:31:36;;;;;;;;;;;20.70;52.30;;;;;;5019027;28;20848;-68
2021/05/20 09:34:10;;;;;;;;;;;20.80;52.30;;;;;;5033793;28;19925;-68
2021/05/20 09:36:42;;;;;;;;;;;20.80;52.40;;;;;;5032377;28;20383;-69
2021/05/20 09:39:08;;;;;;;;;;;20.80;52.40;;;;;;5027947;28;19925;-70
2021/05/20 09:41:34;;;;;;;;;;;20.80;52.30;;;;;;5033334;28;19940;-68
2021/05/20 09:44:00;;;;;;;;;;;20.80;52.30;;;;;;5032873;28;19935;-69
2021/05/20 09:46:29;;;;;;;;;;;20.80;52.20;;;;;;5028895;28;19924;-69
2021/05/20 09:48:57;;;;;;;;;;;20.80;52.30;;;;;;5028911;28;20017;-68
2021/05/20 09:51:24;;;;;;;;;;;20.80;52.40;;;;;;4993120;28;19933;-68
2021/05/20 09:53:52;;;;;;;;;;;20.80;52.40;;;;;;4969148;28;20481;-67
2021/05/20 09:56:30;;;;;;;;;;;20.80;52.30;;;;;;5006620;28;19928;-67
2021/05/20 09:58:56;;;;;;;;;;;20.80;52.50;;;;;;5042787;28;19928;-67
2021/05/20 10:01:22;;;;;;;;;;;20.70;52.30;;;;;;5034098;28;19956;-67
2021/05/20 10:03:50;;;;;;;;;;;20.70;52.40;;;;;;5018307;28;19928;-67
2021/05/20 10:06:16;;;;;;;;;;;20.70;52.40;;;;;;4994853;28;19928;-68
2021/05/20 10:08:42;;;;;;;;;;;20.70;52.40;;;;;;5000028;28;20344;-67
2021/05/20 10:11:09;;;;;;;;;;;20.70;52.30;;;;;;5042377;28;19928;-72
2021/05/20 10:13:35;;;;;;;;;;;20.70;52.30;;;;;;5034343;28;21055;-69
2021/05/20 10:16:01;;;;;;;;;;;20.70;52.10;;;;;;5029295;28;19958;-68
2021/05/20 10:18:27;;;;;;;;;;;20.70;52.20;;;;;;5031143;28;19929;-67
2021/05/20 10:20:54;;;;;;;;;;;20.60;52.10;;;;;;5041664;28;21282;-67
2021/05/20 10:23:20;;;;;;;;;;;20.60;52.10;;;;;;5039282;28;19983;-68
2021/05/20 10:25:47;;;;;;;;;;;20.60;52.00;;;;;;5044978;28;20343;-68
2021/05/20 10:28:14;;;;;;;;;;;20.70;52.10;;;;;;5040809;28;20627;-69
2021/05/20 10:30:40;;;;;;;;;;;20.70;52.20;;;;;;5042910;28;20010;-67
2021/05/20 10:33:06;;;;;;;;;;;20.70;52.20;;;;;;5040955;28;20539;-68
2021/05/20 10:35:39;;;;;;;;;;;20.70;52.30;;;;;;5045045;28;19936;-69
2021/05/20 10:38:05;;;;;;;;;;;20.70;52.30;;;;;;5027998;28;20035;-68
2021/05/20 10:40:33;;;;;;;;;;;20.70;52.10;;;;;;5044539;28;19932;-67
2021/05/20 10:43:06;;;;;;;;;;;20.70;52.20;;;;;;5044121;28;19929;-72
2021/05/20 10:45:33;;;;;;;;;;;20.70;52.10;;;;;;5044503;28;20009;-67
2021/05/20 10:48:20;;;;;;;;;;;20.60;52.00;;;;;;5006900;28;19959;-71
2021/05/20 10:51:03;;;;;;;;;;;20.60;52.10;;;;;;5024835;28;19928;-68
2021/05/20 10:54:02;;;;;;;;;;;20.60;52.30;;;;;;5041828;28;19928;-68
2021/05/20 10:56:58;;;;;;;;;;;20.70;52.20;;;;;;5029671;28;19932;-68
2021/05/20 10:59:30;;;;;;;;;;;20.70;52.30;;;;;;5034759;28;20360;-68
2021/05/20 11:01:56;;;;;;;;;;;20.70;52.40;;;;;;4985381;28;19924;-69
2021/05/20 11:04:31;;;;;;;;;;;20.70;52.40;;;;;;5016194;28;20702;-67
2021/05/20 11:06:57;;;;;;;;;;;20.70;52.50;;;;;;5038725;28;19928;-67
2021/05/20 11:09:24;;;;;;;;;;;20.70;52.50;;;;;;5044243;28;19933;-68
2021/05/20 11:11:50;;;;;;;;;;;20.70;52.60;;;;;;5015649;28;19983;-69
2021/05/20 11:14:32;;;;;;;;;;;20.70;52.50;;;;;;5005487;28;20011;-67
2021/05/20 11:16:59;;;;;;;;;;;20.70;52.50;;;;;;5012986;28;20385;-68
2021/05/20 11:19:26;;;;;;;;;;;20.70;52.60;;;;;;5035149;28;19929;-68
2021/05/20 11:22:12;;;;;;;;;;;20.70;52.50;;;;;;5034758;28;20440;-68
2021/05/20 11:24:38;;;;;;;;;;;20.70;52.60;;;;;;5013041;28;19979;-69
2021/05/20 11:27:05;;;;;;;;;;;20.70;52.70;;;;;;5030746;28;19929;-67
2021/05/20 11:29:31;;;;;;;;;;;20.60;52.80;;;;;;5024904;28;19929;-70
2021/05/20 11:31:59;;;;;;;;;;;20.60;52.70;;;;;;5037121;28;20305;-67
2021/05/20 11:34:37;;;;;;;;;;;20.60;52.70;;;;;;5035477;28;20455;-68
2021/05/20 11:37:04;;;;;;;;;;;20.60;52.70;;;;;;5033827;28;20343;-67
2021/05/20 11:39:30;;;;;;;;;;;20.60;52.80;;;;;;5047607;28;20645;-67
2021/05/20 11:41:57;;;;;;;;;;;20.50;52.70;;;;;;5031218;28;19928;-67
2021/05/20 11:44:25;;;;;;;;;;;20.50;52.70;;;;;;5048867;28;19932;-67
2021/05/20 11:47:04;;;;;;;;;;;20.50;52.80;;;;;;5031193;28;19929;-67
2021/05/20 11:49:31;;;;;;;;;;;20.50;52.80;;;;;;5029088;28;20398;-68
2021/05/20 11:51:58;;;;;;;;;;;20.50;52.80;;;;;;5044520;28;20898;-69
2021/05/20 11:54:25;;;;;;;;;;;20.60;53.00;;;;;;5032376;28;20392;-66
2021/05/20 11:56:52;;;;;;;;;;;20.60;53.00;;;;;;5013104;28;19929;-69
2021/05/20 11:59:22;;;;;;;;;;;20.60;53.10;;;;;;5017994;28;19937;-68
2021/05/20 12:01:48;;;;;;;;;;;20.60;53.00;;;;;;5000696;28;19929;-68
2021/05/20 12:04:14;;;;;;;;;;;20.60;53.00;;;;;;4999869;28;19928;-70
2021/05/20 12:06:40;;;;;;;;;;;20.60;52.90;;;;;;5028504;28;19935;-69
2021/05/20 12:09:07;;;;;;;;;;;20.60;53.60;;;;;;5047921;28;19929;-67
2021/05/20 12:11:33;;;;;;;;;;;20.60;52.90;;;;;;5036480;28;19929;-68
2021/05/20 12:13:59;;;;;;;;;;;20.60;52.90;;;;;;5022409;28;19929;-69
2021/05/20 12:16:25;;;;;;;;;;;20.60;53.10;;;;;;5034522;28;20395;-67
2021/05/20 12:18:51;;;;;;;;;;;20.50;53.00;;;;;;5052531;28;19936;-69
2021/05/20 12:21:17;;;;;;;;;;;20.50;53.20;;;;;;5026420;28;19932;-67
2021/05/20 12:23:53;;;;;;;;;;;20.50;53.30;;;;;;5035484;28;19932;-67
2021/05/20 12:26:29;;;;;;;;;;;20.50;53.40;;;;;;5046728;28;20031;-68
2021/05/20 12:28:55;;;;;;;;;;;20.50;53.50;;;;;;5051360;28;19933;-68
2021/05/20 12:31:21;;;;;;;;;;;20.50;53.40;;;;;;5024735;28;19936;-67
2021/05/20 12:33:47;;;;;;;;;;;20.50;53.50;;;;;;5042510;28;19925;-68
2021/05/20 12:36:29;;;;;;;;;;;20.50;53.50;;;;;;5007066;28;19968;-67
2021/05/20 12:38:56;;;;;;;;;;;20.50;53.50;;;;;;5023922;28;19962;-69
2021/05/20 12:41:22;;;;;;;;;;;20.50;53.60;;;;;;5047825;28;19932;-68
2021/05/20 12:43:48;;;;;;;;;;;20.50;53.70;;;;;;5041364;28;20321;-69
2021/05/20 12:46:14;;;;;;;;;;;20.50;53.60;;;;;;5049550;28;19935;-66
2021/05/20 12:48:40;;;;;;;;;;;20.50;53.60;;;;;;5018760;28;19929;-67
2021/05/20 12:51:06;;;;;;;;;;;20.60;53.70;;;;;;5020195;28;19929;-67
2021/05/20 12:53:34;;;;;;;;;;;20.60;53.80;;;;;;4987792;28;20028;-68
2021/05/20 12:56:02;;;;;;;;;;;20.60;53.60;;;;;;5041803;28;19933;-69
2021/05/20 12:58:46;;;;;;;;;;;20.50;53.60;;;;;;5018833;28;20569;-65
2021/05/20 13:01:12;;;;;;;;;;;20.50;53.60;;;;;;5025013;28;19929;-68
2021/05/20 13:03:39;;;;;;;;;;;20.60;53.80;;;;;;5046052;28;19932;-68
2021/05/20 13:06:05;;;;;;;;;;;20.50;53.70;;;;;;5019690;28;19937;-68
2021/05/20 13:08:33;;;;;;;;;;;20.60;53.90;;;;;;5050736;28;20281;-69
2021/05/20 13:10:59;;;;;;;;;;;20.50;53.80;;;;;;5039818;28;19986;-69
2021/05/20 13:13:27;;;;;;;;;;;20.50;54.10;;;;;;5041290;28;19925;-68
2021/05/20 13:15:56;;;;;;;;;;;20.50;53.90;;;;;;5036336;28;20398;-68
2021/05/20 13:23:56;;;;;;;;;;;20.60;53.80;;;;;;5022840;28;19928;-68
2021/05/20 13:26:22;;;;;;;;;;;20.60;53.90;;;;;;5009393;28;19932;-67
2021/05/20 13:28:51;;;;;;;;;;;20.60;54.00;;;;;;5028118;28;20691;-70
2021/05/20 13:31:21;;;;;;;;;;;20.60;54.00;;;;;;5036536;28;19935;-67
2021/05/20 13:33:48;;;;;;;;;;;20.60;54.00;;;;;;5019536;28;19929;-68
2021/05/20 13:36:14;;;;;;;;;;;20.60;54.00;;;;;;5043864;28;19928;-70
2021/05/20 13:38:40;;;;;;;;;;;20.60;53.90;;;;;;5026124;28;20621;-68
2021/05/20 13:41:06;;;;;;;;;;;20.60;53.90;;;;;;5048013;28;20057;-67
2021/05/20 13:43:32;;;;;;;;;;;20.70;54.00;;;;;;5048278;28;19932;-68
2021/05/20 13:45:59;;;;;;;;;;;20.70;54.00;;;;;;5046981;28;20458;-68
2021/05/20 13:48:27;;;;;;;;;;;20.70;53.90;;;;;;5034315;28;19928;-68
2021/05/20 13:50:53;;;;;;;;;;;20.60;53.90;;;;;;5038315;28;19972;-70
2021/05/20 13:53:19;;;;;;;;;;;20.60;53.90;;;;;;5046139;28;19933;-69
2021/05/20 13:55:45;;;;;;;;;;;20.60;54.00;;;;;;5051500;28;20497;-67
2021/05/20 13:58:13;;;;;;;;;;;20.60;54.00;;;;;;5039739;28;19982;-68
2021/05/20 14:00:39;;;;;;;;;;;20.60;54.10;;;;;;5047534;28;19929;-67
2021/05/20 14:03:09;;;;;;;;;;;20.60;54.10;;;;;;5044672;28;19941;-67
2021/05/20 14:05:35;;;;;;;;;;;20.60;54.20;;;;;;5049281;28;19932;-69
2021/05/20 14:08:01;;;;;;;;;;;20.60;54.30;;;;;;5049314;28;19935;-68
2021/05/20 14:10:28;;;;;;;;;;;20.60;54.20;;;;;;5009013;28;19933;-67
2021/05/20 14:12:54;;;;;;;;;;;20.60;54.30;;;;;;5016210;28;20308;-67
2021/05/20 14:15:20;;;;;;;;;;;20.60;54.30;;;;;;5044999;28;19928;-67
2021/05/20 14:17:46;;;;;;;;;;;20.60;54.20;;;;;;5031009;28;20528;-69
2021/05/20 14:20:15;;;;;;;;;;;20.60;54.20;;;;;;5029343;28;19964;-67
2021/05/20 14:22:41;;;;;;;;;;;20.60;54.20;;;;;;5034435;28;19935;-69
2021/05/20 14:25:07;;;;;;;;;;;20.60;54.10;;;;;;5044012;28;19928;-68